Llandinam, United Kingdom
Current Conditions -  °F | °C
As of 6:11 PM on Thursday 29 Jan 2015 (Local Time) from EGOS Reporting Station
Snow Showers Snow Showers  
Wind Chill: 24°   Ceiling: 4000
Heat Index: 34°   Visibility: 4mi
Dew Point: 32°   Wind: 15mph
Humidity: 93%   Direction: 260°W
Pressure: 28.85"   Gusts: NA
Location:  52.49°N, 3.43°W
Report Text: EGOS 291811Z 26013KT 6000 -SHSN FEW007 FEW015CB BKN040 01/M00 Q0977 WHT TEMPO 3000 SCT010 SCT015CB YLO1
Loading
Personal Weather Stations






























Interactive Weather Map New forecast layout! Learn more

10-Day Weather Forecast

Advertisements
Track Severe Weather on mobile